createdAt,value
2024-01-16T00:00:04.275Z,100854.66
2024-01-16T00:02:06.439Z,100862.88
2024-01-16T00:04:08.835Z,100862.09
2024-01-16T00:06:10.473Z,100862.22
2024-01-16T00:08:12.063Z,100863.91
2024-01-16T00:10:13.877Z,100857.41
2024-01-16T00:12:15.493Z,100850.28
2024-01-16T00:14:17.164Z,100849.13
2024-01-16T00:16:18.840Z,100849.97
2024-01-16T00:18:20.583Z,100850.81
2024-01-16T00:20:24.457Z,100841.13
2024-01-16T00:22:26.150Z,100837.81
2024-01-16T00:24:27.807Z,100839.97
2024-01-16T00:26:29.440Z,100838.38
2024-01-16T00:28:32.794Z,100823.03
2024-01-16T00:30:37.471Z,100835.91
2024-01-16T00:32:40.503Z,100842.63
2024-01-16T00:34:43.025Z,100839.75
2024-01-16T00:36:44.646Z,100829.31
2024-01-16T00:38:47.229Z,100841.22
2024-01-16T00:40:48.833Z,100839.53
2024-01-16T00:42:50.388Z,100836.97
2024-01-16T00:44:52.077Z,100835.28
2024-01-16T00:46:53.625Z,100840.94
2024-01-16T00:48:55.403Z,100843.81
2024-01-16T00:50:57.078Z,100847.41
2024-01-16T00:52:59.069Z,100844.88
2024-01-16T00:55:00.900Z,100840.19
2024-01-16T00:57:02.476Z,100833.03
2024-01-16T00:59:04.284Z,100833.59
2024-01-16T01:01:06.150Z,100837.09
2024-01-16T01:03:07.871Z,100838.78
2024-01-16T01:05:09.876Z,100833.59
2024-01-16T01:07:14.644Z,100834.66
2024-01-16T01:09:17.551Z,100828.69
2024-01-16T01:11:19.168Z,100841.16
2024-01-16T01:13:21.020Z,100835.06
2024-01-16T01:15:22.742Z,100829.00
2024-01-16T01:17:24.612Z,100822.59
2024-01-16T01:19:26.509Z,100817.91
2024-01-16T01:21:28.302Z,100815.03
2024-01-16T01:23:29.952Z,100821.97
2024-01-16T01:25:31.664Z,100812.38
2024-01-16T01:27:33.339Z,100817.63
2024-01-16T01:29:35.038Z,100825.69
2024-01-16T01:31:36.678Z,100826.75
2024-01-16T01:33:38.381Z,100818.97
2024-01-16T01:35:40.086Z,100822.72
2024-01-16T01:37:41.708Z,100821.00
2024-01-16T01:39:43.288Z,100825.41
2024-01-16T01:41:45.081Z,100826.88
2024-01-16T01:43:46.764Z,100826.75
2024-01-16T01:46:15.336Z,100837.09
2024-01-16T01:48:17.101Z,100844.22
2024-01-16T01:50:19.540Z,100849.75
2024-01-16T01:52:21.214Z,100854.25
2024-01-16T01:54:23.855Z,100862.44
2024-01-16T01:56:25.729Z,100863.50
2024-01-16T01:58:27.393Z,100863.59
2024-01-16T02:00:29.080Z,100864.56
2024-01-16T02:02:30.794Z,100863.59
2024-01-16T02:04:32.885Z,100863.38
2024-01-16T02:06:34.622Z,100854.34
2024-01-16T02:08:36.555Z,100857.63
2024-01-16T02:10:38.779Z,100850.50
2024-01-16T02:12:40.388Z,100847.84
2024-01-16T02:14:42.249Z,100855.94
2024-01-16T02:16:45.964Z,100843.91
2024-01-16T02:18:47.726Z,100835.28
2024-01-16T02:20:49.582Z,100849.34
2024-01-16T02:22:54.322Z,100844.25
2024-01-16T02:24:57.150Z,100823.25
2024-01-16T02:26:58.760Z,100834.22
2024-01-16T02:29:03.293Z,100824.44
2024-01-16T02:31:05.061Z,100816.00
2024-01-16T02:33:07.087Z,100824.84
2024-01-16T02:35:11.105Z,100816.44
2024-01-16T02:37:12.920Z,100820.72
2024-01-16T02:39:14.505Z,100814.75
2024-01-16T02:41:17.148Z,100821.97
2024-01-16T02:43:18.897Z,100814.97
2024-01-16T02:45:21.220Z,100816.03
2024-01-16T02:47:22.911Z,100812.53
2024-01-16T02:49:26.944Z,100819.22
2024-01-16T02:51:28.812Z,100811.75
2024-01-16T02:53:31.107Z,100799.19
2024-01-16T02:55:32.729Z,100805.25
2024-01-16T02:57:34.401Z,100803.78
2024-01-16T02:59:36.111Z,100789.28
2024-01-16T03:01:37.859Z,100793.47
2024-01-16T03:03:40.783Z,100795.38
2024-01-16T03:05:42.487Z,100781.09
2024-01-16T03:07:44.233Z,100798.38
2024-01-16T03:09:45.871Z,100783.69
2024-01-16T03:11:47.896Z,100785.78
2024-01-16T03:13:50.931Z,100780.25
2024-01-16T03:15:52.482Z,100787.91
2024-01-16T03:17:54.476Z,100786.19
2024-01-16T03:22:02.564Z,100784.50
2024-01-16T03:24:04.265Z,100783.75
2024-01-16T03:26:05.866Z,100777.81
2024-01-16T03:28:11.713Z,100777.06
2024-01-16T03:30:13.557Z,100777.16
2024-01-16T03:32:15.380Z,100788.78
2024-01-16T03:34:17.103Z,100785.06
2024-01-16T03:36:19.399Z,100780.38
2024-01-16T03:38:21.056Z,100781.97
2024-01-16T03:42:29.329Z,100782.59
2024-01-16T03:46:32.641Z,100778.56
2024-01-16T03:48:34.450Z,100776.00
2024-01-16T03:50:37.289Z,100773.53
2024-01-16T03:56:52.248Z,100781.66
2024-01-16T03:58:54.117Z,100760.56
2024-01-16T04:00:56.045Z,100773.09
2024-01-16T04:02:57.654Z,100769.50
2024-01-16T04:04:59.250Z,100770.34
2024-01-16T04:07:00.948Z,100774.00
2024-01-16T04:09:02.745Z,100776.88
2024-01-16T04:11:04.482Z,100764.72
2024-01-16T04:13:06.017Z,100774.63
2024-01-16T04:15:08.127Z,100768.47
2024-01-16T04:19:16.283Z,100766.88
2024-01-16T04:21:19.759Z,100754.72
2024-01-16T04:23:22.393Z,100761.22
2024-01-16T04:25:23.970Z,100759.94
2024-01-16T04:27:26.526Z,100754.59
2024-01-16T04:29:28.327Z,100747.59
2024-01-16T04:31:30.068Z,100747.59
2024-01-16T04:33:32.088Z,100746.44
2024-01-16T04:35:33.795Z,100747.19
2024-01-16T04:37:35.356Z,100745.47
2024-01-16T04:39:37.146Z,100743.84
2024-01-16T04:41:38.871Z,100733.56
2024-01-16T04:43:40.525Z,100740.25
2024-01-16T04:45:42.098Z,100745.25
2024-01-16T04:47:43.752Z,100745.88
2024-01-16T04:49:45.357Z,100749.38
2024-01-16T04:51:47.085Z,100739.81
2024-01-16T04:53:49.025Z,100740.88
2024-01-16T04:55:50.685Z,100740.03
2024-01-16T04:57:52.324Z,100727.81
2024-01-16T04:59:54.033Z,100727.03
2024-01-16T05:01:56.115Z,100722.78
2024-01-16T05:03:57.781Z,100719.06
2024-01-16T05:05:59.591Z,100711.09
2024-01-16T05:08:04.674Z,100714.50
2024-01-16T05:10:08.408Z,100705.53
2024-01-16T05:12:10.037Z,100706.94
2024-01-16T05:14:11.715Z,100705.25
2024-01-16T05:16:14.358Z,100701.81
2024-01-16T05:18:16.160Z,100702.88
2024-01-16T05:20:18.082Z,100698.53
2024-01-16T05:22:19.725Z,100700.56
2024-01-16T05:24:21.402Z,100695.25
2024-01-16T05:26:23.426Z,100697.06
2024-01-16T05:28:25.107Z,100697.91
2024-01-16T05:30:26.862Z,100695.03
2024-01-16T05:32:29.021Z,100701.19
2024-01-16T05:34:30.913Z,100696.63
2024-01-16T05:36:32.600Z,100692.16
2024-01-16T05:38:35.254Z,100691.31
2024-01-16T05:40:36.936Z,100689.72
2024-01-16T05:42:39.219Z,100696.84
2024-01-16T05:44:40.949Z,100708.44
2024-01-16T05:46:43.523Z,100693.78
2024-01-16T05:48:45.251Z,100692.69
2024-01-16T05:50:46.899Z,100687.34
2024-01-16T05:52:48.551Z,100687.13
2024-01-16T05:54:50.110Z,100683.41
2024-01-16T05:56:51.853Z,100684.16
2024-01-16T05:58:53.625Z,100677.13
2024-01-16T06:00:56.570Z,100677.25
2024-01-16T06:02:58.283Z,100679.06
2024-01-16T06:05:00.027Z,100677.56
2024-01-16T06:07:01.664Z,100663.41
2024-01-16T06:09:06.297Z,100668.84
2024-01-16T06:11:07.939Z,100660.34
2024-01-16T06:13:09.549Z,100659.91
2024-01-16T06:15:12.567Z,100666.91
2024-01-16T06:17:14.179Z,100674.69
2024-01-16T06:19:17.458Z,100670.03
2024-01-16T06:21:20.500Z,100658.84
2024-01-16T06:23:23.361Z,100679.06
2024-01-16T06:25:25.058Z,100666.91
2024-01-16T06:27:26.708Z,100666.91
2024-01-16T06:29:34.586Z,100660.25
2024-01-16T06:31:37.207Z,100672.50
2024-01-16T06:33:39.092Z,100672.72
2024-01-16T06:35:41.345Z,100673.44
2024-01-16T06:37:43.396Z,100667.16
2024-01-16T06:39:45.088Z,100667.03
2024-01-16T06:41:46.795Z,100649.63
2024-01-16T06:43:48.423Z,100664.16
2024-01-16T06:45:50.122Z,100667.03
2024-01-16T06:47:52.206Z,100665.13
2024-01-16T06:49:53.968Z,100670.06
2024-01-16T06:51:55.580Z,100684.81
2024-01-16T06:53:57.410Z,100683.22
2024-01-16T06:55:59.205Z,100675.38
2024-01-16T06:58:00.857Z,100683.34
2024-01-16T07:00:02.614Z,100682.38
2024-01-16T07:02:04.656Z,100694.63
2024-01-16T07:04:06.305Z,100695.34
2024-01-16T07:06:08.045Z,100686.28
2024-01-16T07:08:09.923Z,100688.88
2024-01-16T07:10:19.204Z,100687.25
2024-01-16T07:12:20.945Z,100682.16
2024-01-16T07:14:22.616Z,100683.34
2024-01-16T07:16:24.273Z,100674.31
2024-01-16T07:18:26.073Z,100690.44
2024-01-16T07:20:27.733Z,100678.25
2024-01-16T07:22:29.308Z,100679.81
2024-01-16T07:24:30.921Z,100671.63
2024-01-16T07:26:32.507Z,100681.19
2024-01-16T07:28:34.146Z,100680.34
2024-01-16T07:30:35.986Z,100684.59
2024-01-16T07:32:37.878Z,100686.50
2024-01-16T07:34:39.605Z,100683.56
2024-01-16T07:36:41.158Z,100687.69
2024-01-16T07:38:42.837Z,100695.91
2024-01-16T07:40:44.493Z,100693.25
2024-01-16T07:42:46.088Z,100684.41
2024-01-16T07:44:47.754Z,100678.13
2024-01-16T07:46:49.430Z,100672.72
2024-01-16T07:48:51.065Z,100674.19
2024-01-16T07:50:52.764Z,100674.91
2024-01-16T07:52:54.384Z,100686.50
2024-01-16T07:54:56.034Z,100677.38
2024-01-16T07:56:57.638Z,100690.34
2024-01-16T07:58:59.239Z,100687.91
2024-01-16T08:01:00.891Z,100686.09
2024-01-16T08:03:02.648Z,100694.22
2024-01-16T08:05:05.664Z,100687.59
2024-01-16T08:07:07.827Z,100688.88
2024-01-16T08:09:09.417Z,100682.59
2024-01-16T08:11:11.004Z,100693.03
2024-01-16T08:13:12.627Z,100696.44
2024-01-16T08:15:14.289Z,100696.53
2024-01-16T08:17:16.053Z,100693.13
2024-01-16T08:19:18.007Z,100703.75
2024-01-16T08:21:19.650Z,100699.63
2024-01-16T08:23:22.367Z,100689.09
2024-01-16T08:25:24.026Z,100684.00
2024-01-16T08:27:25.626Z,100685.91
2024-01-16T08:29:27.266Z,100690.47
2024-01-16T08:31:29.016Z,100691.97
2024-01-16T08:33:37.209Z,100699.75
2024-01-16T08:35:45.541Z,100703.03
2024-01-16T08:37:47.195Z,100700.47
2024-01-16T08:39:50.773Z,100704.63
2024-01-16T08:41:52.757Z,100702.06
2024-01-16T08:43:55.205Z,100710.25
2024-01-16T08:45:56.834Z,100707.72
2024-01-16T08:47:59.286Z,100701.66
2024-01-16T08:50:00.968Z,100684.94
2024-01-16T08:52:03.773Z,100677.38
2024-01-16T08:54:05.411Z,100684.00
2024-01-16T08:56:09.789Z,100684.63
2024-01-16T08:58:11.489Z,100670.56
2024-01-16T09:00:13.579Z,100674.41
2024-01-16T09:02:15.177Z,100679.81
2024-01-16T09:04:17.070Z,100679.81
2024-01-16T09:06:18.993Z,100683.44
2024-01-16T09:08:20.885Z,100684.50
2024-01-16T09:10:22.669Z,100683.78
2024-01-16T09:12:24.289Z,100691.84
2024-01-16T09:14:25.896Z,100681.34
2024-01-16T09:16:27.544Z,100685.81
2024-01-16T09:18:29.327Z,100690.88
2024-01-16T09:20:31.260Z,100685.25
2024-01-16T09:22:32.912Z,100686.94
2024-01-16T09:24:34.605Z,100687.69
2024-01-16T09:26:36.688Z,100681.53
2024-01-16T09:28:38.351Z,100680.69
2024-01-16T09:30:40.096Z,100674.72
2024-01-16T09:32:41.883Z,100669.50
2024-01-16T09:34:43.578Z,100673.16
2024-01-16T09:36:45.187Z,100674.22
2024-01-16T09:38:46.821Z,100678.34
2024-01-16T09:40:48.813Z,100666.72
2024-01-16T09:42:50.640Z,100661.09
2024-01-16T09:44:53.431Z,100658.22
2024-01-16T09:46:56.804Z,100646.94
2024-01-16T09:49:00.921Z,100645.97
2024-01-16T09:51:02.780Z,100647.66
2024-01-16T09:53:04.447Z,100641.50
2024-01-16T09:55:09.089Z,100639.19
2024-01-16T09:57:13.942Z,100645.34
2024-01-16T09:59:18.437Z,100650.78
2024-01-16T10:01:20.364Z,100648.00
2024-01-16T10:03:22.061Z,100652.38
2024-01-16T10:05:23.912Z,100656.53
2024-01-16T10:07:28.939Z,100649.41
2024-01-16T10:09:30.749Z,100635.56
2024-01-16T10:11:34.890Z,100653.53
2024-01-16T10:13:37.714Z,100657.16
2024-01-16T10:15:39.749Z,100645.75
2024-01-16T10:22:05.366Z,100623.97
2024-01-16T10:24:16.466Z,100645.97
2024-01-16T10:26:19.808Z,100646.72
2024-01-16T10:28:25.395Z,100632.25
2024-01-16T10:34:43.410Z,100623.41
2024-01-16T10:36:45.095Z,100629.34
2024-01-16T10:38:46.881Z,100632.03
2024-01-16T10:45:09.958Z,100618.81
2024-01-16T10:47:13.046Z,100626.34
2024-01-16T10:49:14.727Z,100616.69
2024-01-16T10:51:16.764Z,100620.72
2024-01-16T10:55:29.076Z,100617.06
2024-01-16T10:57:32.598Z,100616.22
2024-01-16T10:59:43.997Z,100616.09
2024-01-16T11:01:48.891Z,100610.06
2024-01-16T11:03:53.957Z,100609.44
2024-01-16T11:05:58.401Z,100610.50
2024-01-16T11:08:02.245Z,100601.78
2024-01-16T11:10:04.424Z,100611.00
2024-01-16T11:12:06.202Z,100603.91
2024-01-16T11:14:08.126Z,100591.22
2024-01-16T11:16:11.971Z,100600.88
2024-01-16T11:18:15.471Z,100598.97
2024-01-16T11:20:37.455Z,100592.91
2024-01-16T11:22:42.157Z,100599.19
2024-01-16T11:24:44.333Z,100602.81
2024-01-16T11:26:46.055Z,100598.44
2024-01-16T11:28:48.456Z,100586.22
2024-01-16T11:30:50.215Z,100586.13
2024-01-16T11:32:51.840Z,100586.00
2024-01-16T11:34:55.984Z,100579.81
2024-01-16T11:36:58.304Z,100582.38
2024-01-16T11:39:00.480Z,100583.09
2024-01-16T11:41:02.064Z,100585.53
2024-01-16T11:43:35.901Z,100592.56
2024-01-16T11:45:37.806Z,100587.22
2024-01-16T11:47:40.781Z,100588.94
2024-01-16T11:49:42.523Z,100585.66
2024-01-16T11:51:44.173Z,100586.59
2024-01-16T11:53:46.110Z,100576.09
2024-01-16T11:56:07.775Z,100583.72
2024-01-16T11:58:45.293Z,100576.94
2024-01-16T12:00:52.001Z,100575.63
2024-01-16T12:02:55.576Z,100570.31
2024-01-16T12:04:57.719Z,100555.28
2024-01-16T12:07:00.531Z,100556.25
2024-01-16T12:09:15.788Z,100553.16
2024-01-16T12:11:22.768Z,100542.38
2024-01-16T12:13:26.953Z,100545.91
2024-01-16T12:15:28.729Z,100538.47
2024-01-16T12:17:30.446Z,100541.38
2024-01-16T12:19:32.319Z,100546.81
2024-01-16T12:21:43.513Z,100545.00
2024-01-16T12:23:52.466Z,100543.78
2024-01-16T12:26:04.583Z,100537.44
2024-01-16T12:28:08.049Z,100532.22
2024-01-16T12:30:10.442Z,100514.03
2024-01-16T12:32:12.949Z,100514.81
2024-01-16T12:34:14.896Z,100507.97
2024-01-16T12:36:16.593Z,100509.06
2024-01-16T12:38:18.451Z,100483.28
2024-01-16T12:40:20.265Z,100483.66
2024-01-16T12:42:23.867Z,100488.75
2024-01-16T12:44:30.450Z,100476.19
2024-01-16T12:46:33.395Z,100457.19
2024-01-16T12:48:35.324Z,100462.53
2024-01-16T12:50:38.247Z,100459.16
2024-01-16T12:52:39.879Z,100448.84
2024-01-16T12:54:41.491Z,100449.97
2024-01-16T12:56:43.416Z,100435.56
2024-01-16T13:00:52.658Z,100440.94
2024-01-16T13:02:59.757Z,100447.13
2024-01-16T13:05:04.592Z,100444.47
2024-01-16T13:07:07.398Z,100443.25
2024-01-16T13:09:19.937Z,100433.44
2024-01-16T13:11:33.013Z,100442.19
2024-01-16T13:13:41.708Z,100429.81
2024-01-16T13:15:44.526Z,100419.66
2024-01-16T13:17:46.668Z,100413.75
2024-01-16T13:19:48.532Z,100411.06
2024-01-16T13:21:50.741Z,100403.66
2024-01-16T13:23:52.308Z,100409.72
2024-01-16T13:25:56.963Z,100405.00
2024-01-16T13:27:58.892Z,100398.59
2024-01-16T13:30:00.733Z,100402.34
2024-01-16T13:32:02.388Z,100407.34
2024-01-16T13:34:04.211Z,100399.06
2024-01-16T13:38:13.548Z,100387.22
2024-01-16T13:40:16.934Z,100379.34
2024-01-16T13:42:21.184Z,100383.59
2024-01-16T13:44:22.931Z,100379.00
2024-01-16T13:48:31.117Z,100370.53
2024-01-16T13:50:34.256Z,100370.38
2024-01-16T13:52:36.893Z,100363.13
2024-01-16T13:54:40.003Z,100362.75
2024-01-16T13:56:58.392Z,100355.84
2024-01-16T13:59:03.653Z,100339.28
2024-01-16T14:01:05.550Z,100332.75
2024-01-16T14:03:07.909Z,100330.09
2024-01-16T14:05:16.277Z,100325.13
2024-01-16T14:07:18.005Z,100323.44
2024-01-16T14:09:20.191Z,100317.38
2024-01-16T14:11:21.801Z,100316.53
2024-01-16T14:13:23.499Z,100315.94
2024-01-16T14:15:25.732Z,100312.44
2024-01-16T14:17:27.594Z,100304.31
2024-01-16T14:19:31.796Z,100316.91
2024-01-16T14:21:33.892Z,100315.34
2024-01-16T14:23:35.555Z,100317.25
2024-01-16T14:25:37.515Z,100310.00
2024-01-16T14:27:41.293Z,100323.81
2024-01-16T14:29:43.175Z,100327.69
2024-01-16T14:31:45.060Z,100323.78
2024-01-16T14:33:46.823Z,100330.19
2024-01-16T14:35:48.538Z,100323.53
2024-01-16T14:37:50.585Z,100318.59
2024-01-16T14:39:52.135Z,100332.72
2024-01-16T14:41:53.937Z,100330.19
2024-01-16T14:43:55.602Z,100331.38
2024-01-16T14:45:59.415Z,100333.09
2024-01-16T14:48:01.284Z,100325.47
2024-01-16T14:50:04.771Z,100320.75
2024-01-16T14:52:08.711Z,100325.09
2024-01-16T14:54:10.657Z,100319.16
2024-01-16T14:56:14.256Z,100317.72
2024-01-16T14:58:16.156Z,100316.25
2024-01-16T15:00:35.614Z,100317.72
2024-01-16T15:02:37.282Z,100311.41
2024-01-16T15:04:46.353Z,100304.66
2024-01-16T15:06:51.805Z,100305.38
2024-01-16T15:08:53.475Z,100309.50
2024-01-16T15:10:55.083Z,100311.31
2024-01-16T15:12:56.777Z,100309.50
2024-01-16T15:14:58.685Z,100300.69
2024-01-16T15:17:02.115Z,100304.28
2024-01-16T15:19:04.004Z,100306.00
2024-01-16T15:21:08.131Z,100301.25
2024-01-16T15:23:09.804Z,100317.94
2024-01-16T15:25:12.922Z,100311.03
2024-01-16T15:27:14.596Z,100317.34
2024-01-16T15:29:16.216Z,100303.44
2024-01-16T15:31:18.975Z,100307.88
2024-01-16T15:33:20.968Z,100305.22
2024-01-16T15:35:23.930Z,100304.50
2024-01-16T15:37:25.620Z,100307.41
2024-01-16T15:39:27.265Z,100306.44
2024-01-16T15:41:29.123Z,100290.72
2024-01-16T15:43:30.761Z,100303.31
2024-01-16T15:45:32.393Z,100295.56
2024-01-16T15:47:34.190Z,100296.91
2024-01-16T15:49:36.983Z,100285.28
2024-01-16T15:51:38.569Z,100285.78
2024-01-16T15:53:40.282Z,100280.47
2024-01-16T15:55:42.780Z,100271.75
2024-01-16T15:57:44.700Z,100276.22
2024-01-16T15:59:46.503Z,100270.81
2024-01-16T16:01:48.335Z,100245.41
2024-01-16T16:03:50.262Z,100266.66
2024-01-16T16:05:52.002Z,100258.00
2024-01-16T16:07:53.675Z,100257.25
2024-01-16T16:09:55.436Z,100256.16
2024-01-16T16:11:57.897Z,100258.69
2024-01-16T16:13:59.540Z,100267.66
2024-01-16T16:16:01.127Z,100259.06
2024-01-16T16:18:03.315Z,100259.41
2024-01-16T16:20:05.613Z,100261.97
2024-01-16T16:22:08.126Z,100263.78
2024-01-16T16:24:09.811Z,100266.19
2024-01-16T16:26:11.427Z,100268.97
2024-01-16T16:28:13.449Z,100266.44
2024-01-16T16:30:15.105Z,100274.28
2024-01-16T16:32:17.161Z,100275.38
2024-01-16T16:34:20.100Z,100265.59
2024-01-16T16:36:21.762Z,100268.25
2024-01-16T16:38:23.453Z,100258.94
2024-01-16T16:40:25.085Z,100264.63
2024-01-16T16:42:28.396Z,100259.44
2024-01-16T16:44:30.081Z,100251.44
2024-01-16T16:46:31.750Z,100254.81
2024-01-16T16:48:34.346Z,100260.28
2024-01-16T16:50:36.303Z,100263.03
2024-01-16T16:52:38.053Z,100258.66
2024-01-16T16:58:53.930Z,100242.00
2024-01-16T17:00:55.586Z,100242.75
2024-01-16T17:02:57.304Z,100241.03
2024-01-16T17:04:59.579Z,100243.06
2024-01-16T17:07:01.855Z,100232.56
2024-01-16T17:09:07.473Z,100238.88
2024-01-16T17:11:10.093Z,100230.50
2024-01-16T17:13:11.822Z,100227.97
2024-01-16T17:15:13.495Z,100230.38
2024-01-16T17:17:15.195Z,100229.41
2024-01-16T17:19:16.919Z,100222.28
2024-01-16T17:21:18.780Z,100226.28
2024-01-16T17:23:20.578Z,100210.81
2024-01-16T17:25:22.557Z,100216.50
2024-01-16T17:27:28.042Z,100203.06
2024-01-16T17:29:29.644Z,100215.28
2024-01-16T17:31:31.430Z,100215.28
2024-01-16T17:33:33.515Z,100218.19
2024-01-16T17:35:35.320Z,100220.38
2024-01-16T17:37:36.995Z,100214.69
2024-01-16T17:39:38.617Z,100204.03
2024-01-16T17:41:40.728Z,100209.22
2024-01-16T17:43:43.813Z,100204.66
2024-01-16T17:45:45.613Z,100202.69
2024-01-16T17:47:47.485Z,100203.78
2024-01-16T17:49:51.210Z,100205.81
2024-01-16T17:54:01.503Z,100190.44
2024-01-16T17:58:11.624Z,100180.66
2024-01-16T18:00:13.526Z,100173.91
2024-01-16T18:02:15.166Z,100174.00
2024-01-16T18:04:18.740Z,100166.25
2024-01-16T18:08:29.077Z,100161.69
2024-01-16T18:10:31.510Z,100161.81
2024-01-16T18:12:33.955Z,100158.56
2024-01-16T18:20:54.995Z,100132.31
2024-01-16T18:22:57.163Z,100133.16
2024-01-16T18:24:58.771Z,100100.44
2024-01-16T18:33:20.819Z,100148.03
2024-01-16T18:35:22.657Z,100139.97
2024-01-16T18:37:25.615Z,100124.34
2024-01-16T18:43:42.336Z,100132.75
2024-01-16T18:45:43.970Z,100132.13
2024-01-16T18:47:46.179Z,100132.75
2024-01-16T18:49:49.020Z,100140.22
2024-01-16T18:53:57.435Z,100140.00
2024-01-16T18:55:59.230Z,100138.19
2024-01-16T18:58:03.088Z,100131.03
2024-01-16T19:00:14.106Z,100133.69
2024-01-16T19:02:21.870Z,100129.72
2024-01-16T19:04:25.188Z,100129.72
2024-01-16T19:06:27.199Z,100105.69
2024-01-16T19:08:28.936Z,100131.78
2024-01-16T19:10:30.631Z,100121.88
2024-01-16T19:12:32.296Z,100120.75
2024-01-16T19:14:34.017Z,100112.91
2024-01-16T19:16:35.718Z,100104.34
2024-01-16T19:18:37.556Z,100111.09
2024-01-16T19:20:39.377Z,100100.59
2024-01-16T19:22:45.520Z,100096.22
2024-01-16T19:24:47.104Z,100082.09
2024-01-16T19:26:49.444Z,100088.75
2024-01-16T19:28:51.158Z,100087.03
2024-01-16T19:30:54.589Z,100082.84
2024-01-16T19:32:57.165Z,100084.38
2024-01-16T19:34:58.882Z,100075.81
2024-01-16T19:37:00.562Z,100073.28
2024-01-16T19:39:02.255Z,100072.53
2024-01-16T19:45:18.406Z,100056.84
2024-01-16T19:47:20.175Z,100056.59
2024-01-16T19:49:22.849Z,100057.19
2024-01-16T19:51:29.663Z,100060.28
2024-01-16T19:53:33.086Z,100039.41
2024-01-16T19:55:35.081Z,100048.06
2024-01-16T19:57:36.753Z,100035.63
2024-01-16T19:59:38.770Z,100019.91
2024-01-16T20:01:40.438Z,100023.16
2024-01-16T20:03:44.165Z,100013.50
2024-01-16T20:05:46.809Z,100005.66
2024-01-16T20:07:49.592Z,100003.00
2024-01-16T20:09:51.199Z,99997.34
2024-01-16T20:11:53.175Z,99997.19
2024-01-16T20:13:55.242Z,99989.34
2024-01-16T20:18:04.431Z,99984.22
2024-01-16T20:20:06.817Z,99968.28
2024-01-16T20:22:08.391Z,99969.94
2024-01-16T20:24:11.985Z,99955.97
2024-01-16T20:26:13.575Z,99946.31
2024-01-16T20:32:28.687Z,99940.09
2024-01-16T20:34:31.479Z,99940.97
2024-01-16T20:36:33.128Z,99935.78
2024-01-16T20:38:35.394Z,99929.47
2024-01-16T20:40:38.260Z,99918.72
2024-01-16T20:42:39.980Z,99915.06
2024-01-16T20:44:41.760Z,99908.06
2024-01-16T20:46:43.470Z,99910.47
2024-01-16T20:48:47.263Z,99903.47
2024-01-16T20:50:49.161Z,99894.53
2024-01-16T20:52:50.801Z,99887.50
2024-01-16T20:54:52.577Z,99878.09
2024-01-16T20:56:54.278Z,99882.19
2024-01-16T20:58:55.899Z,99877.84
2024-01-16T21:00:57.675Z,99877.72
2024-01-16T21:05:07.607Z,99877.22
2024-01-16T21:07:09.394Z,99865.84
2024-01-16T21:09:16.618Z,99851.13
2024-01-16T21:11:18.437Z,99860.63
2024-01-16T21:13:20.551Z,99852.91
2024-01-16T21:15:22.133Z,99842.69
2024-01-16T21:17:24.994Z,99849.56
2024-01-16T21:19:26.800Z,99824.25
2024-01-16T21:21:28.859Z,99831.84
2024-01-16T21:23:32.076Z,99829.53
2024-01-16T21:25:33.760Z,99841.00
2024-01-16T21:31:54.088Z,99811.34
2024-01-16T21:33:55.896Z,99802.66
2024-01-16T21:35:57.789Z,99796.38
2024-01-16T21:37:59.404Z,99786.81
2024-01-16T21:40:01.026Z,99779.84
2024-01-16T21:42:04.199Z,99768.47
2024-01-16T21:44:09.231Z,99757.00
2024-01-16T21:46:11.823Z,99775.63
2024-01-16T21:48:15.152Z,99788.75
2024-01-16T21:50:25.814Z,99764.13
2024-01-16T21:52:32.198Z,99755.63
2024-01-16T21:54:33.939Z,99752.13
2024-01-16T21:56:35.623Z,99752.00
2024-01-16T21:58:37.288Z,99713.56
2024-01-16T22:00:38.974Z,99735.47
2024-01-16T22:02:40.707Z,99726.75
2024-01-16T22:04:42.435Z,99731.50
2024-01-16T22:06:45.347Z,99725.19
2024-01-16T22:08:54.317Z,99728.00
2024-01-16T22:10:56.110Z,99726.91
2024-01-16T22:12:58.891Z,99728.47
2024-01-16T22:15:00.600Z,99725.41
2024-01-16T22:17:02.444Z,99722.72
2024-01-16T22:19:04.413Z,99719.94
2024-01-16T22:21:06.429Z,99692.59
2024-01-16T22:23:08.049Z,99709.59
2024-01-16T22:25:10.456Z,99701.88
2024-01-16T22:27:12.865Z,99700.16
2024-01-16T22:29:14.520Z,99679.00
2024-01-16T22:31:16.819Z,99683.63
2024-01-16T22:33:18.583Z,99679.16
2024-01-16T22:35:20.217Z,99670.91
2024-01-16T22:37:24.654Z,99670.63
2024-01-16T22:39:27.794Z,99672.19
2024-01-16T22:41:33.104Z,99674.72
2024-01-16T22:43:35.483Z,99669.38
2024-01-16T22:45:37.076Z,99661.56
2024-01-16T22:47:38.925Z,99668.81
2024-01-16T22:49:40.638Z,99661.09
2024-01-16T22:51:42.325Z,99660.41
2024-01-16T22:53:44.131Z,99660.53
2024-01-16T22:55:47.136Z,99669.34
2024-01-16T22:57:48.836Z,99667.28
2024-01-16T22:59:50.468Z,99660.00
2024-01-16T23:01:52.136Z,99660.56
2024-01-16T23:03:58.563Z,99666.72
2024-01-16T23:06:01.681Z,99660.84
2024-01-16T23:08:04.334Z,99670.38
2024-01-16T23:10:09.136Z,99667.16
2024-01-16T23:12:12.933Z,99661.00
2024-01-16T23:14:14.623Z,99654.25
2024-01-16T23:16:16.570Z,99652.44
2024-01-16T23:18:18.756Z,99651.59
2024-01-16T23:20:21.427Z,99641.94
2024-01-16T23:22:23.592Z,99646.59
2024-01-16T23:24:25.335Z,99645.44
2024-01-16T23:26:27.229Z,99648.00
2024-01-16T23:28:29.040Z,99636.63
2024-01-16T23:30:34.540Z,99631.31
2024-01-16T23:32:38.262Z,99622.66
2024-01-16T23:34:40.026Z,99614.94
2024-01-16T23:36:41.694Z,99610.72
2024-01-16T23:38:43.385Z,99610.00
2024-01-16T23:40:45.194Z,99603.84
2024-01-16T23:42:46.863Z,99596.44
2024-01-16T23:44:48.514Z,99595.34
2024-01-16T23:46:50.148Z,99586.94
2024-01-16T23:48:51.814Z,99578.84
2024-01-16T23:50:53.521Z,99570.97
2024-01-16T23:52:55.313Z,99564.69
2024-01-16T23:54:57.043Z,99558.66
2024-01-16T23:56:59.709Z,99551.81
2024-01-16T23:59:01.579Z,99542.69
